JLY1615 SBCF-SBGR
Flight info
| Callsign | JLY1615 |
|---|---|
| Flight time | 0h 46m |
| Altitude | 32000 |
| Route | DEUCA UZ21 VUNOX |
| Aircraft | B77L/H-SDE1E2E3FGHIJ2J3J4J5M1RWXY/LB1D1 |
Departure
| Time | 2026-04-30 21:57 |
|---|---|
| Airport | Tancredo Neves International Airport (SBCF) |
Arrival
| Time | 2026-04-30 22:43 |
|---|---|
| Airport | São Paulo/Guarulhos–Governor André Franco Montoro International Airport (SBGR) |
| Time | Latitude | Longitude | Altitude | Speed | Heading |
|---|---|---|---|---|---|
| 2026-04-30 21:31 | -19.64057 | -43.95820 | 2806 ft | 0 kts | 47° |
| 2026-04-30 21:41 | -19.64060 | -43.95823 | 2798 ft | 3 kts | 48° |
| 2026-04-30 21:41 | -19.64077 | -43.95844 | 2797 ft | 4 kts | 44° |
| 2026-04-30 21:41 | -19.64098 | -43.95859 | 2795 ft | 4 kts | 8° |
| 2026-04-30 21:41 | -19.64123 | -43.95856 | 2796 ft | 4 kts | 329° |
| 2026-04-30 21:42 | -19.64131 | -43.95851 | 2797 ft | 1 kts | 319° |
| 2026-04-30 21:46 | -19.64114 | -43.95866 | 2797 ft | 8 kts | 319° |
| 2026-04-30 21:46 | -19.64082 | -43.95913 | 2799 ft | 8 kts | 273° |
| 2026-04-30 21:46 | -19.64088 | -43.95974 | 2798 ft | 8 kts | 284° |
| 2026-04-30 21:47 | -19.64050 | -43.96021 | 2797 ft | 9 kts | 319° |
| 2026-04-30 21:47 | -19.64004 | -43.96063 | 2796 ft | 9 kts | 319° |
| 2026-04-30 21:47 | -19.63958 | -43.96105 | 2797 ft | 9 kts | 319° |
| 2026-04-30 21:47 | -19.63912 | -43.96148 | 2797 ft | 9 kts | 319° |
| 2026-04-30 21:48 | -19.63866 | -43.96190 | 2797 ft | 9 kts | 319° |
| 2026-04-30 21:48 | -19.63820 | -43.96232 | 2797 ft | 9 kts | 319° |
| 2026-04-30 21:48 | -19.63774 | -43.96275 | 2797 ft | 9 kts | 319° |
| 2026-04-30 21:48 | -19.63729 | -43.96318 | 2797 ft | 9 kts | 318° |
| 2026-04-30 21:49 | -19.63681 | -43.96363 | 2795 ft | 12 kts | 319° |
| 2026-04-30 21:49 | -19.63617 | -43.96421 | 2794 ft | 12 kts | 319° |
| 2026-04-30 21:49 | -19.63553 | -43.96480 | 2794 ft | 12 kts | 319° |
| 2026-04-30 21:49 | -19.63489 | -43.96538 | 2794 ft | 12 kts | 319° |
| 2026-04-30 21:50 | -19.63425 | -43.96597 | 2796 ft | 12 kts | 319° |
| 2026-04-30 21:50 | -19.63362 | -43.96656 | 2796 ft | 12 kts | 319° |
| 2026-04-30 21:50 | -19.63298 | -43.96715 | 2796 ft | 12 kts | 319° |
| 2026-04-30 21:50 | -19.63234 | -43.96774 | 2796 ft | 12 kts | 318° |
| 2026-04-30 21:51 | -19.63171 | -43.96833 | 2795 ft | 12 kts | 319° |
| 2026-04-30 21:51 | -19.63107 | -43.96892 | 2794 ft | 12 kts | 320° |
| 2026-04-30 21:51 | -19.63043 | -43.96950 | 2794 ft | 12 kts | 318° |
| 2026-04-30 21:51 | -19.62980 | -43.97010 | 2795 ft | 12 kts | 319° |
| 2026-04-30 21:52 | -19.62917 | -43.97068 | 2795 ft | 12 kts | 318° |
| 2026-04-30 21:52 | -19.62853 | -43.97129 | 2795 ft | 12 kts | 321° |
| 2026-04-30 21:52 | -19.62789 | -43.97186 | 2795 ft | 12 kts | 320° |
| 2026-04-30 21:52 | -19.62726 | -43.97245 | 2795 ft | 12 kts | 319° |
| 2026-04-30 21:53 | -19.62663 | -43.97304 | 2797 ft | 12 kts | 319° |
| 2026-04-30 21:53 | -19.62599 | -43.97363 | 2797 ft | 12 kts | 319° |
| 2026-04-30 21:53 | -19.62535 | -43.97421 | 2796 ft | 12 kts | 319° |
| 2026-04-30 21:53 | -19.62471 | -43.97480 | 2797 ft | 12 kts | 319° |
| 2026-04-30 21:54 | -19.62408 | -43.97539 | 2795 ft | 12 kts | 319° |
| 2026-04-30 21:54 | -19.62344 | -43.97599 | 2794 ft | 12 kts | 319° |
| 2026-04-30 21:54 | -19.62282 | -43.97659 | 2794 ft | 12 kts | 309° |
| 2026-04-30 21:54 | -19.62310 | -43.97732 | 2794 ft | 12 kts | 223° |
| 2026-04-30 21:55 | -19.62345 | -43.97775 | 2794 ft | 3 kts | 231° |
| 2026-04-30 21:55 | -19.62368 | -43.97785 | 2793 ft | 6 kts | 176° |
| 2026-04-30 21:55 | -19.62406 | -43.97766 | 2794 ft | 6 kts | 148° |
| 2026-04-30 21:55 | -19.62417 | -43.97757 | 2797 ft | 0 kts | 139° |
| 2026-04-30 21:56 | -19.62419 | -43.97755 | 2797 ft | 6 kts | 139° |
| 2026-04-30 21:56 | -19.62637 | -43.97555 | 2795 ft | 77 kts | 139° |
| 2026-04-30 21:56 | -19.63192 | -43.97041 | 2792 ft | 136 kts | 139° |
| 2026-04-30 21:56 | -19.64036 | -43.96261 | 2796 ft | 183 kts | 139° |
| 2026-04-30 21:57 | -19.65029 | -43.95353 | 3135 ft | 191 kts | 138° |
| 2026-04-30 21:57 | -19.66047 | -43.94423 | 3594 ft | 192 kts | 137° |
| 2026-04-30 21:57 | -19.67044 | -43.93499 | 4247 ft | 189 kts | 137° |
| 2026-04-30 21:57 | -19.67721 | -43.92870 | 4592 ft | 195 kts | 137° |
| 2026-04-30 21:58 | -19.68838 | -43.91926 | 4778 ft | 215 kts | 152° |
| 2026-04-30 21:58 | -19.70857 | -43.91726 | 5275 ft | 233 kts | 197° |
| 2026-04-30 21:58 | -19.71834 | -43.92233 | 5571 ft | 243 kts | 215° |
| 2026-04-30 21:58 | -19.73144 | -43.93498 | 5779 ft | 267 kts | 224° |
| 2026-04-30 21:59 | -19.74476 | -43.94951 | 6241 ft | 280 kts | 225° |
| 2026-04-30 21:59 | -19.75839 | -43.96462 | 6887 ft | 286 kts | 225° |
| 2026-04-30 21:59 | -19.77224 | -43.98001 | 7580 ft | 290 kts | 225° |
| 2026-04-30 22:00 | -19.80033 | -44.01116 | 9071 ft | 294 kts | 225° |
| 2026-04-30 22:00 | -19.82893 | -44.04270 | 10445 ft | 301 kts | 225° |
| 2026-04-30 22:00 | -19.84395 | -44.05920 | 10689 ft | 323 kts | 225° |
| 2026-04-30 22:01 | -19.86017 | -44.07698 | 10844 ft | 346 kts | 225° |
| 2026-04-30 22:01 | -19.87747 | -44.09594 | 11003 ft | 369 kts | 225° |
| 2026-04-30 22:01 | -19.89572 | -44.11596 | 11416 ft | 384 kts | 225° |
| 2026-04-30 22:01 | -19.91450 | -44.13657 | 11992 ft | 393 kts | 225° |
| 2026-04-30 22:02 | -19.93366 | -44.15759 | 12761 ft | 397 kts | 225° |
| 2026-04-30 22:02 | -19.95272 | -44.17850 | 13554 ft | 401 kts | 225° |
| 2026-04-30 22:02 | -19.97228 | -44.19997 | 14260 ft | 406 kts | 226° |
| 2026-04-30 22:02 | -19.99201 | -44.22164 | 14937 ft | 409 kts | 226° |
| 2026-04-30 22:03 | -20.01192 | -44.24350 | 15614 ft | 413 kts | 226° |
| 2026-04-30 22:03 | -20.03192 | -44.26547 | 16273 ft | 416 kts | 226° |
| 2026-04-30 22:03 | -20.05211 | -44.28766 | 16920 ft | 420 kts | 226° |
| 2026-04-30 22:03 | -20.07259 | -44.31017 | 17546 ft | 424 kts | 227° |
| 2026-04-30 22:04 | -20.09324 | -44.33288 | 18171 ft | 428 kts | 227° |
| 2026-04-30 22:04 | -20.11396 | -44.35567 | 18726 ft | 432 kts | 227° |
| 2026-04-30 22:04 | -20.15579 | -44.40171 | 19852 ft | 437 kts | 227° |
| 2026-04-30 22:05 | -20.17685 | -44.42490 | 20450 ft | 438 kts | 227° |
| 2026-04-30 22:05 | -20.19512 | -44.44503 | 20929 ft | 440 kts | 227° |
| 2026-04-30 22:05 | -20.21646 | -44.46857 | 21468 ft | 444 kts | 227° |
| 2026-04-30 22:05 | -20.23800 | -44.49232 | 21975 ft | 447 kts | 227° |
| 2026-04-30 22:06 | -20.25967 | -44.51623 | 22511 ft | 450 kts | 227° |
| 2026-04-30 22:06 | -20.30337 | -44.56447 | 23533 ft | 455 kts | 227° |
| 2026-04-30 22:06 | -20.32543 | -44.58883 | 23976 ft | 458 kts | 227° |
| 2026-04-30 22:07 | -20.34756 | -44.61329 | 24414 ft | 460 kts | 227° |
| 2026-04-30 22:07 | -20.36987 | -44.63797 | 24834 ft | 462 kts | 227° |
| 2026-04-30 22:07 | -20.39224 | -44.66270 | 25244 ft | 465 kts | 227° |
| 2026-04-30 22:07 | -20.41472 | -44.68759 | 25659 ft | 467 kts | 227° |
| 2026-04-30 22:08 | -20.43732 | -44.71261 | 26064 ft | 470 kts | 227° |
| 2026-04-30 22:08 | -20.46004 | -44.73777 | 26468 ft | 472 kts | 227° |
| 2026-04-30 22:08 | -20.48304 | -44.76283 | 26857 ft | 475 kts | 225° |
| 2026-04-30 22:08 | -20.50806 | -44.78621 | 27239 ft | 478 kts | 219° |
| 2026-04-30 22:09 | -20.53492 | -44.80719 | 27701 ft | 480 kts | 217° |
| 2026-04-30 22:09 | -20.56212 | -44.82800 | 28093 ft | 482 kts | 217° |
| 2026-04-30 22:09 | -20.58904 | -44.84870 | 28442 ft | 485 kts | 217° |
| 2026-04-30 22:09 | -20.61646 | -44.86995 | 28804 ft | 487 kts | 217° |
| 2026-04-30 22:10 | -20.64388 | -44.89138 | 29162 ft | 489 kts | 218° |
| 2026-04-30 22:10 | -20.67140 | -44.91297 | 29524 ft | 491 kts | 218° |
| 2026-04-30 22:10 | -20.69903 | -44.93468 | 29875 ft | 493 kts | 218° |
| 2026-04-30 22:10 | -20.72669 | -44.95639 | 30269 ft | 493 kts | 218° |
| 2026-04-30 22:11 | -20.78169 | -44.99955 | 31217 ft | 487 kts | 218° |
| 2026-04-30 22:11 | -20.80895 | -45.02093 | 31717 ft | 484 kts | 218° |
| 2026-04-30 22:11 | -20.83605 | -45.04221 | 32113 ft | 484 kts | 218° |
| 2026-04-30 22:12 | -20.86329 | -45.06362 | 32088 ft | 486 kts | 218° |
| 2026-04-30 22:12 | -20.91760 | -45.10631 | 32086 ft | 482 kts | 218° |
| 2026-04-30 22:13 | -20.97121 | -45.14847 | 32089 ft | 481 kts | 218° |
| 2026-04-30 22:13 | -21.02521 | -45.19098 | 32083 ft | 481 kts | 218° |
| 2026-04-30 22:14 | -21.07919 | -45.23352 | 32080 ft | 481 kts | 218° |
| 2026-04-30 22:14 | -21.13317 | -45.27611 | 32080 ft | 482 kts | 218° |
| 2026-04-30 22:15 | -21.18713 | -45.31871 | 32074 ft | 482 kts | 218° |
| 2026-04-30 22:15 | -21.24077 | -45.36110 | 32079 ft | 482 kts | 218° |
| 2026-04-30 22:16 | -21.29481 | -45.40386 | 32082 ft | 482 kts | 218° |
| 2026-04-30 22:17 | -21.40279 | -45.48940 | 32072 ft | 482 kts | 218° |
| 2026-04-30 22:17 | -21.48361 | -45.55355 | 32077 ft | 481 kts | 218° |
| 2026-04-30 22:18 | -21.56460 | -45.61740 | 32073 ft | 481 kts | 218° |
| 2026-04-30 22:19 | -21.64540 | -45.68079 | 32081 ft | 481 kts | 218° |
| 2026-04-30 22:20 | -21.72626 | -45.74444 | 32082 ft | 480 kts | 218° |
| 2026-04-30 22:20 | -21.80708 | -45.80818 | 32092 ft | 480 kts | 219° |
| 2026-04-30 22:21 | -21.86100 | -45.85076 | 32092 ft | 480 kts | 219° |
| 2026-04-30 22:21 | -21.91480 | -45.89327 | 31892 ft | 480 kts | 219° |
| 2026-04-30 22:22 | -21.94189 | -45.91470 | 31091 ft | 484 kts | 219° |
| 2026-04-30 22:22 | -21.96906 | -45.93621 | 30341 ft | 484 kts | 219° |
| 2026-04-30 22:22 | -21.99604 | -45.95757 | 29656 ft | 479 kts | 218° |
| 2026-04-30 22:22 | -22.02275 | -45.97870 | 28984 ft | 474 kts | 219° |
| 2026-04-30 22:23 | -22.04921 | -45.99966 | 28345 ft | 470 kts | 219° |
| 2026-04-30 22:23 | -22.07518 | -46.02025 | 27750 ft | 466 kts | 219° |
| 2026-04-30 22:23 | -22.10116 | -46.04087 | 27145 ft | 462 kts | 219° |
| 2026-04-30 22:23 | -22.12696 | -46.06135 | 26554 ft | 459 kts | 219° |
| 2026-04-30 22:24 | -22.15257 | -46.08169 | 25964 ft | 456 kts | 219° |
| 2026-04-30 22:24 | -22.17805 | -46.10191 | 25386 ft | 453 kts | 218° |
| 2026-04-30 22:24 | -22.20339 | -46.12201 | 24803 ft | 451 kts | 218° |
| 2026-04-30 22:24 | -22.22863 | -46.14202 | 24219 ft | 449 kts | 218° |
| 2026-04-30 22:25 | -22.25382 | -46.16200 | 23643 ft | 448 kts | 218° |
| 2026-04-30 22:25 | -22.27887 | -46.18188 | 22978 ft | 445 kts | 218° |
| 2026-04-30 22:25 | -22.30390 | -46.20145 | 22371 ft | 439 kts | 215° |
| 2026-04-30 22:25 | -22.33133 | -46.21567 | 21818 ft | 441 kts | 198° |
| 2026-04-30 22:26 | -22.39142 | -46.22482 | 20806 ft | 431 kts | 189° |
| 2026-04-30 22:26 | -22.42109 | -46.22908 | 20308 ft | 430 kts | 190° |
| 2026-04-30 22:26 | -22.45026 | -46.23355 | 19797 ft | 428 kts | 190° |
| 2026-04-30 22:27 | -22.47960 | -46.23816 | 19278 ft | 425 kts | 190° |
| 2026-04-30 22:27 | -22.50888 | -46.24277 | 18783 ft | 423 kts | 190° |
| 2026-04-30 22:27 | -22.56683 | -46.25183 | 17821 ft | 415 kts | 190° |
| 2026-04-30 22:28 | -22.62312 | -46.26056 | 17119 ft | 403 kts | 189° |
| 2026-04-30 22:28 | -22.65093 | -46.26489 | 16784 ft | 403 kts | 189° |
| 2026-04-30 22:29 | -22.73475 | -46.27793 | 15765 ft | 405 kts | 189° |
| 2026-04-30 22:29 | -22.76253 | -46.28224 | 15427 ft | 402 kts | 189° |
| 2026-04-30 22:30 | -22.85998 | -46.33290 | 14099 ft | 397 kts | 210° |
| 2026-04-30 22:31 | -22.93134 | -46.37742 | 13050 ft | 390 kts | 210° |
| 2026-04-30 22:32 | -23.00134 | -46.42084 | 12064 ft | 380 kts | 210° |
| 2026-04-30 22:32 | -23.04485 | -46.44787 | 11419 ft | 334 kts | 210° |
| 2026-04-30 22:33 | -23.09998 | -46.48216 | 10657 ft | 289 kts | 210° |
| 2026-04-30 22:33 | -23.13446 | -46.50364 | 10211 ft | 286 kts | 211° |
| 2026-04-30 22:34 | -23.18599 | -46.53574 | 9451 ft | 283 kts | 211° |
| 2026-04-30 22:35 | -23.21982 | -46.55737 | 8937 ft | 280 kts | 213° |
| 2026-04-30 22:36 | -23.28359 | -46.60300 | 7766 ft | 268 kts | 214° |
| 2026-04-30 22:36 | -23.29918 | -46.61410 | 7575 ft | 268 kts | 214° |
| 2026-04-30 22:37 | -23.34636 | -46.64763 | 6992 ft | 271 kts | 214° |
| 2026-04-30 22:37 | -23.36194 | -46.65872 | 6804 ft | 271 kts | 214° |
| 2026-04-30 22:37 | -23.39358 | -46.68122 | 6396 ft | 271 kts | 214° |
| 2026-04-30 22:38 | -23.42563 | -46.70146 | 5978 ft | 261 kts | 191° |
| 2026-04-30 22:38 | -23.46072 | -46.69659 | 5618 ft | 252 kts | 162° |
| 2026-04-30 22:39 | -23.47547 | -46.68728 | 5355 ft | 243 kts | 133° |
| 2026-04-30 22:39 | -23.47918 | -46.63794 | 4867 ft | 216 kts | 80° |
| 2026-04-30 22:40 | -23.46766 | -46.59432 | 4303 ft | 176 kts | 78° |
| 2026-04-30 22:41 | -23.45702 | -46.55483 | 3742 ft | 170 kts | 77° |
| 2026-04-30 22:41 | -23.45079 | -46.53165 | 3331 ft | 156 kts | 78° |
| 2026-04-30 22:42 | -23.43880 | -46.48706 | 2515 ft | 144 kts | 79° |
| 2026-04-30 22:43 | -23.43482 | -46.47227 | 2474 ft | 40 kts | 73° |
| 2026-04-30 22:43 | -23.43316 | -46.46877 | 2475 ft | 24 kts | 44° |
| 2026-04-30 22:44 | -23.43044 | -46.46733 | 2477 ft | 24 kts | 345° |
| 2026-04-30 22:45 | -23.42800 | -46.46962 | 2474 ft | 13 kts | 253° |
| 2026-04-30 22:45 | -23.42856 | -46.47173 | 2474 ft | 20 kts | 254° |
| 2026-04-30 22:46 | -23.42934 | -46.47458 | 2476 ft | 20 kts | 253° |
| 2026-04-30 22:47 | -23.43089 | -46.48029 | 2476 ft | 20 kts | 253° |
| 2026-04-30 22:47 | -23.43165 | -46.48313 | 2476 ft | 20 kts | 253° |
| 2026-04-30 22:48 | -23.43022 | -46.48456 | 2477 ft | 16 kts | 330° |
| 2026-04-30 22:49 | -23.42916 | -46.48755 | 2478 ft | 14 kts | 358° |
| 2026-04-30 22:49 | -23.42765 | -46.48774 | 2473 ft | 8 kts | 292° |
| 2026-04-30 22:50 | -23.42755 | -46.48827 | 2473 ft | 0 kts | 277° |